»·PEaware :: N1079M KBFL-KMHV

N1079M :: KBFL-KMHV

FLIGHT INFORMATION

Flight Status: Arrived
Operator: Privately registered:
United States
More flights under this callsign
Pilot: Michael D. (37618)
Aircraft: CESSNA 172 SKYHAWK
(C172)
More flights by this aircraft type
Origin: KBFL Meadows
United States
Destination: KMHV Mojave
United States
More flights between these airports :: More routes between these airports
Route: TSP
File this flight plan on PilotEdge
Remarks:
Altitude:
(Current/Filed)
9,500ft
Speed:
(Current/Filed)
110kts
Departed: 27-Dec-21 12:20 PM
Arrived: 27-Dec-21 12:52 PM
Distance/Time
Traveled:
49nm/0:32
Distance/Time
To Go:
Arrived

Flight Plot

Page will automatically refresh every two minutes.

Flight plan parsing failed; only flown route is shown


Map Options




Map Legend


Flown Route
Filed Route
Departure Airport
Arrival Airport
Navaid (VOR, NDB)
Fix

Horizontal Profiles

Position Reports

Time Latitude Longitude Heading Altitude Ground
Speed
27-Dec-21 11:51 35.430800 -119.047428 140 486ft 0kts
27-Dec-21 11:52 35.430800 -119.047428 140 486ft 0kts
27-Dec-21 11:53 35.430800 -119.047428 140 486ft 0kts
27-Dec-21 11:54 35.430800 -119.047428 140 486ft 0kts
27-Dec-21 11:55 35.430800 -119.047428 140 486ft 0kts
27-Dec-21 11:56 35.430800 -119.047428 140 486ft 0kts
27-Dec-21 11:57 35.430800 -119.047428 140 486ft 0kts
27-Dec-21 11:58 35.430800 -119.047428 140 486ft 0kts
27-Dec-21 11:59 35.430800 -119.047428 140 486ft 0kts
27-Dec-21 12:00 35.430800 -119.047428 140 486ft 0kts
27-Dec-21 12:01 35.430800 -119.047428 140 486ft 0kts
27-Dec-21 12:02 35.430800 -119.047428 140 486ft 0kts
27-Dec-21 12:11 35.430053 -119.047278 135 485ft 0kts
27-Dec-21 12:12 35.430053 -119.047278 135 485ft 0kts
27-Dec-21 12:13 35.430053 -119.047278 135 485ft 0kts
27-Dec-21 12:14 35.430053 -119.047278 135 485ft 0kts
27-Dec-21 12:15 35.430053 -119.047278 135 485ft 0kts
27-Dec-21 12:16 35.429356 -119.047769 219 483ft 20kts
27-Dec-21 12:17 35.425760 -119.044741 223 471ft 0kts
27-Dec-21 12:18 35.425894 -119.046644 312 477ft 35kts
27-Dec-21 12:19 35.441290 -119.065219 307 1177ft 84kts
27-Dec-21 12:20 35.449685 -119.056326 96 2032ft 80kts
27-Dec-21 12:21 35.440369 -119.026761 129 2739ft 99kts
27-Dec-21 12:22 35.425708 -118.994235 120 3437ft 107kts
27-Dec-21 12:23 35.417475 -118.962306 108 4258ft 100kts
27-Dec-21 12:24 35.403154 -118.935167 148 4940ft 89kts
27-Dec-21 12:25 35.384860 -118.910654 145 5339ft 111kts
27-Dec-21 12:26 35.361014 -118.879228 143 5235ft 119kts
27-Dec-21 12:27 35.336471 -118.849022 148 5318ft 129kts
27-Dec-21 12:28 35.313524 -118.816580 122 5315ft 129kts
27-Dec-21 12:29 35.298524 -118.775101 121 5327ft 136kts
27-Dec-21 12:30 35.283147 -118.732201 121 5325ft 138kts
27-Dec-21 12:31 35.268547 -118.690884 113 5821ft 108kts
27-Dec-21 12:32 35.263034 -118.649978 98 6262ft 125kts
27-Dec-21 12:33 35.258221 -118.612696 125 6966ft 106kts
27-Dec-21 12:34 35.245267 -118.579878 128 7386ft 111kts
27-Dec-21 12:35 35.231166 -118.550975 166 8142ft 99kts
27-Dec-21 12:36 35.215816 -118.525351 147 8972ft 98kts
27-Dec-21 12:41 35.112023 -118.392352 131 9591ft 113kts
27-Dec-21 12:42 35.091302 -118.363342 131 9595ft 113kts
27-Dec-21 12:43 35.076682 -118.334374 108 8953ft 97kts
27-Dec-21 12:44 35.077970 -118.300598 70 8110ft 93kts
27-Dec-21 12:45 35.086734 -118.271943 71 7261ft 86kts
27-Dec-21 12:46 35.087074 -118.243925 87 6457ft 80kts
27-Dec-21 12:47 35.086982 -118.215405 109 5584ft 95kts
27-Dec-21 12:48 35.079192 -118.183795 137 4370ft 104kts
27-Dec-21 12:49 35.077205 -118.152869 49 3412ft 75kts
27-Dec-21 12:50 35.071634 -118.146078 230 3178ft 73kts
27-Dec-21 12:51 35.062206 -118.160372 230 2782ft 37kts
27-Dec-21 12:52 35.059510 -118.164523 230 2781ft 0kts
27-Dec-21 12:53 35.058639 -118.165186 143 2782ft 16kts
27-Dec-21 12:54 35.057466 -118.162466 97 2777ft 0kts

Navigation Log

Ident Type
Flight plan parsing failed, navigation log unavailable